createdAt,value
2024-03-01T00:00:53.424Z,64.62
2024-03-01T00:11:15.865Z,64.86
2024-03-01T06:01:57.327Z,74.34
2024-03-01T06:11:59.759Z,69.00
2024-03-01T06:22:02.196Z,69.19
2024-03-01T06:32:05.097Z,70.14
2024-03-01T06:42:07.651Z,70.83
2024-03-01T06:52:11.525Z,69.90
2024-03-01T07:02:14.197Z,67.44
2024-03-01T07:12:16.586Z,67.49
2024-03-01T07:22:19.012Z,67.50
2024-03-01T07:32:21.363Z,65.53
2024-03-01T07:42:24.143Z,65.91
2024-03-01T07:52:30.159Z,63.72
2024-03-01T08:02:32.606Z,63.04
2024-03-01T08:12:35.540Z,64.04
2024-03-01T08:22:38.014Z,62.21
2024-03-01T08:32:46.845Z,63.58
2024-03-01T08:42:50.408Z,58.95
2024-03-01T08:52:54.073Z,59.63
2024-03-01T09:02:56.797Z,59.90
2024-03-01T09:12:59.640Z,59.38
2024-03-01T09:23:04.546Z,59.29
2024-03-01T09:33:20.388Z,59.13
2024-03-01T09:43:44.116Z,58.22
2024-03-01T09:54:14.902Z,59.38
2024-03-01T10:04:32.929Z,58.11
2024-03-01T10:14:56.445Z,58.81
2024-03-01T10:25:39.323Z,58.40
2024-03-01T10:36:01.573Z,57.80
2024-03-01T10:46:12.001Z,56.40
2024-03-01T10:56:15.942Z,56.50
2024-03-01T11:06:30.324Z,56.34
2024-03-01T11:16:36.785Z,54.37
2024-03-01T11:26:45.873Z,54.26
2024-03-01T11:36:58.543Z,53.07
2024-03-01T11:47:21.903Z,52.89
2024-03-01T11:57:38.626Z,52.37
2024-03-01T12:08:00.398Z,50.01
2024-03-01T12:18:35.304Z,51.17
2024-03-01T12:28:50.424Z,50.87
2024-03-01T12:39:02.287Z,51.58
2024-03-01T12:49:27.186Z,50.61
2024-03-01T12:59:41.548Z,52.18
2024-03-01T13:09:47.189Z,51.88
2024-03-01T13:20:00.926Z,51.96
2024-03-01T13:30:10.146Z,51.17
2024-03-01T13:40:21.609Z,52.47
2024-03-01T13:50:32.299Z,52.86
2024-03-01T14:00:35.430Z,52.90
2024-03-01T14:10:38.650Z,53.66
2024-03-01T14:20:40.992Z,53.06
2024-03-01T14:30:45.876Z,53.15
2024-03-01T14:40:56.552Z,53.38
2024-03-01T14:51:05.971Z,53.57
2024-03-01T15:01:09.339Z,53.67
2024-03-01T15:11:26.618Z,54.01
2024-03-01T15:21:29.020Z,54.17
2024-03-01T15:31:31.532Z,54.70
2024-03-01T15:41:34.941Z,54.72
2024-03-01T15:51:37.312Z,54.63
2024-03-01T16:01:39.849Z,56.93
2024-03-01T16:11:43.889Z,59.60
2024-03-01T16:21:46.556Z,61.59
2024-03-01T16:31:50.001Z,63.18
2024-03-01T16:41:53.863Z,64.87
2024-03-01T16:51:59.324Z,65.63
2024-03-01T17:02:03.118Z,64.86
2024-03-01T17:12:05.727Z,61.01
2024-03-01T17:22:09.914Z,61.00
2024-03-01T17:32:12.603Z,61.28
2024-03-01T17:42:14.981Z,62.23
2024-03-01T17:52:17.360Z,62.49
2024-03-01T18:02:19.845Z,62.79
2024-03-01T18:12:22.241Z,62.09
2024-03-01T18:22:26.161Z,62.16
2024-03-01T18:32:28.579Z,61.67
2024-03-01T18:42:30.974Z,62.10
2024-03-01T18:52:33.368Z,60.99
2024-03-01T19:02:36.255Z,64.00
2024-03-01T19:12:38.746Z,65.84
2024-03-01T19:22:41.209Z,73.51
2024-03-01T19:32:44.700Z,75.24
2024-03-01T19:42:47.426Z,78.62
2024-03-01T19:52:50.341Z,79.29
2024-03-01T20:02:52.739Z,80.23
2024-03-01T20:12:55.098Z,80.78
2024-03-01T20:22:57.493Z,82.62
2024-03-01T20:32:59.956Z,81.02
2024-03-01T20:43:02.915Z,82.04
2024-03-01T20:53:06.640Z,82.55
2024-03-01T21:03:09.247Z,81.94
2024-03-01T21:13:11.715Z,81.77
2024-03-01T21:23:14.224Z,81.52
2024-03-01T21:33:16.900Z,81.71
2024-03-01T21:43:19.642Z,82.48
2024-03-01T21:53:22.099Z,83.90
2024-03-01T22:10:11.123Z,83.19
2024-03-01T22:20:13.736Z,82.58
2024-03-01T22:30:16.498Z,82.47
2024-03-01T22:40:19.030Z,82.74
2024-03-01T22:50:25.151Z,83.76
2024-03-01T23:10:16.478Z,85.19
2024-03-01T23:20:19.187Z,85.90
2024-03-01T23:30:22.297Z,82.49
2024-03-01T23:40:25.454Z,83.07
2024-03-01T23:50:28.636Z,83.56
